createdAt,value
2023-05-10T00:01:58.360Z,96299.00
2023-05-10T00:05:59.186Z,96293.41
2023-05-10T00:09:59.348Z,96290.94
2023-05-10T00:14:02.158Z,96256.97
2023-05-10T00:18:02.828Z,96275.31
2023-05-10T00:22:03.719Z,96267.59
2023-05-10T00:26:04.468Z,96253.97
2023-05-10T00:30:09.148Z,96269.50
2023-05-10T00:34:09.536Z,96259.66
2023-05-10T00:38:10.644Z,96273.81
2023-05-10T00:42:11.045Z,96246.81
2023-05-10T00:46:14.548Z,96263.16
2023-05-10T00:50:15.712Z,96255.00
2023-05-10T00:54:18.338Z,96254.78
2023-05-10T00:58:19.121Z,96255.63
2023-05-10T01:02:22.115Z,96255.16
2023-05-10T01:06:22.361Z,96252.34
2023-05-10T01:10:23.161Z,96235.25
2023-05-10T01:14:24.749Z,96230.19
2023-05-10T01:18:29.127Z,96254.44
2023-05-10T01:23:05.888Z,96247.03
2023-05-10T01:27:40.174Z,96241.50
2023-05-10T01:32:25.097Z,96252.25
2023-05-10T01:36:35.082Z,96254.13
2023-05-10T01:40:44.701Z,96262.00
2023-05-10T01:44:56.826Z,96256.78
2023-05-10T01:49:04.347Z,96260.16
2023-05-10T01:53:10.612Z,96258.94
2023-05-10T01:57:15.248Z,96265.28
2023-05-10T02:01:17.602Z,96251.22
2023-05-10T02:05:24.072Z,96260.13
2023-05-10T02:09:27.747Z,96251.13
2023-05-10T02:13:30.907Z,96259.78
2023-05-10T02:17:34.457Z,96265.91
2023-05-10T02:21:39.499Z,96261.22
2023-05-10T02:25:41.555Z,96266.41
2023-05-10T02:29:42.702Z,96266.78
2023-05-10T02:33:46.110Z,96270.56
2023-05-10T02:37:50.729Z,96264.22
2023-05-10T02:41:53.854Z,96272.72
2023-05-10T02:45:54.380Z,96256.16
2023-05-10T02:49:54.818Z,96250.88
2023-05-10T02:54:01.086Z,96240.94
2023-05-10T02:58:04.926Z,96241.16
2023-05-10T03:02:06.352Z,96250.69
2023-05-10T03:06:06.942Z,96244.88
2023-05-10T03:10:12.312Z,96240.34
2023-05-10T03:14:29.148Z,96249.75
2023-05-10T03:18:41.178Z,96247.13
2023-05-10T03:22:53.795Z,96234.78
2023-05-10T03:27:05.572Z,96251.72
2023-05-10T03:31:08.227Z,96250.22
2023-05-10T03:35:11.932Z,96230.44
2023-05-10T03:39:12.435Z,96239.19
2023-05-10T03:43:15.321Z,96254.91
2023-05-10T03:47:16.128Z,96259.69
2023-05-10T03:51:16.889Z,96233.34
2023-05-10T03:55:17.383Z,96258.19
2023-05-10T03:59:20.655Z,96258.97
2023-05-10T04:03:21.474Z,96267.84
2023-05-10T04:07:21.912Z,96274.00
2023-05-10T04:11:23.130Z,96282.91
2023-05-10T04:15:26.366Z,96281.34
2023-05-10T04:19:26.912Z,96286.28
2023-05-10T04:23:27.323Z,96275.63
2023-05-10T04:27:27.803Z,96285.97
2023-05-10T04:31:30.818Z,96270.28
2023-05-10T04:35:31.139Z,96284.41
2023-05-10T04:39:31.348Z,96281.22
2023-05-10T04:43:31.877Z,96298.31
2023-05-10T04:47:34.665Z,96309.59
2023-05-10T04:51:35.395Z,96304.47
2023-05-10T04:55:35.997Z,96303.22
2023-05-10T04:59:36.196Z,96310.84
2023-05-10T05:03:39.242Z,96321.25
2023-05-10T05:07:39.620Z,96303.94
2023-05-10T05:11:41.038Z,96328.41
2023-05-10T05:15:41.329Z,96328.28
2023-05-10T05:19:44.145Z,96326.22
2023-05-10T05:23:44.368Z,96336.38
2023-05-10T05:27:44.589Z,96340.25
2023-05-10T05:31:44.907Z,96350.47
2023-05-10T05:35:51.875Z,96353.53
2023-05-10T05:39:52.766Z,96354.34
2023-05-10T05:43:52.991Z,96342.47
2023-05-10T05:47:53.331Z,96355.88
2023-05-10T05:51:56.259Z,96336.66
2023-05-10T05:55:58.302Z,96347.91
2023-05-10T05:59:58.480Z,96352.41
2023-05-10T06:03:58.878Z,96333.66
2023-05-10T06:08:04.153Z,96367.66
2023-05-10T06:12:04.374Z,96361.16
2023-05-10T06:16:04.868Z,96383.78
2023-05-10T06:20:05.163Z,96381.41
2023-05-10T06:24:09.706Z,96385.63
2023-05-10T06:28:09.887Z,96374.28
2023-05-10T06:32:10.520Z,96370.75
2023-05-10T06:36:11.111Z,96397.75
2023-05-10T06:40:15.877Z,96399.53
2023-05-10T06:44:16.727Z,96406.50
2023-05-10T06:48:17.024Z,96407.66
2023-05-10T06:52:17.248Z,96413.22
2023-05-10T06:56:22.653Z,96414.31
2023-05-10T07:00:23.894Z,96401.44
2023-05-10T07:04:24.181Z,96415.84
2023-05-10T07:08:24.396Z,96392.25
2023-05-10T07:12:27.319Z,96424.22
2023-05-10T07:16:27.538Z,96412.63
2023-05-10T07:20:28.255Z,96425.34
2023-05-10T07:24:28.683Z,96431.38
2023-05-10T07:28:31.483Z,96423.41
2023-05-10T07:32:31.824Z,96420.19
2023-05-10T07:36:32.135Z,96416.88
2023-05-10T07:40:33.164Z,96416.50
2023-05-10T07:44:35.985Z,96440.41
2023-05-10T07:48:36.113Z,96439.81
2023-05-10T07:52:36.743Z,96442.31
2023-05-10T07:56:37.424Z,96442.75
2023-05-10T08:00:40.696Z,96449.72
2023-05-10T08:04:41.280Z,96453.91
2023-05-10T08:08:41.940Z,96456.81
2023-05-10T08:12:42.383Z,96456.75
2023-05-10T08:16:45.248Z,96452.50
2023-05-10T08:20:45.579Z,96462.41
2023-05-10T08:24:47.156Z,96454.72
2023-05-10T08:28:47.652Z,96456.00
2023-05-10T08:32:50.626Z,96442.66
2023-05-10T08:36:51.697Z,96454.72
2023-05-10T08:40:57.679Z,96450.91
2023-05-10T08:45:00.904Z,96457.16
2023-05-10T08:49:08.814Z,96463.16
2023-05-10T08:53:14.355Z,96464.13
2023-05-10T08:57:15.017Z,96477.44
2023-05-10T09:01:17.533Z,96475.41
2023-05-10T09:05:20.715Z,96486.22
2023-05-10T09:09:21.860Z,96484.38
2023-05-10T09:13:24.851Z,96482.84
2023-05-10T09:17:28.356Z,96481.06
2023-05-10T09:21:31.810Z,96487.59
2023-05-10T09:25:34.364Z,96493.34
2023-05-10T09:29:44.413Z,96501.44
2023-05-10T09:33:48.879Z,96489.38
2023-05-10T09:37:55.062Z,96485.59
2023-05-10T09:41:55.332Z,96477.25
2023-05-10T09:45:56.728Z,96491.59
2023-05-10T09:49:59.493Z,96488.22
2023-05-10T09:54:19.533Z,96478.72
2023-05-10T09:58:19.837Z,96477.66
2023-05-10T10:02:20.753Z,96479.44
2023-05-10T10:06:30.219Z,96479.50
2023-05-10T10:10:35.696Z,96479.28
2023-05-10T10:14:36.454Z,96487.56
2023-05-10T10:18:39.902Z,96473.69
2023-05-10T10:22:41.431Z,96489.97
2023-05-10T10:26:46.614Z,96485.16
2023-05-10T10:30:50.851Z,96485.81
2023-05-10T10:34:52.051Z,96477.19
2023-05-10T10:39:04.392Z,96456.19
2023-05-10T10:43:28.587Z,96474.47
2023-05-10T10:47:34.435Z,96462.03
2023-05-10T10:51:40.567Z,96472.94
2023-05-10T10:55:51.244Z,96480.81
2023-05-10T10:59:54.346Z,96473.84
2023-05-10T11:04:22.295Z,96488.75
2023-05-10T11:08:30.211Z,96501.50
2023-05-10T11:12:30.481Z,96501.41
2023-05-10T11:16:46.509Z,96499.38
2023-05-10T11:20:47.998Z,96498.72
2023-05-10T11:25:02.118Z,96494.00
2023-05-10T11:29:05.574Z,96497.78
2023-05-10T11:33:09.187Z,96487.97
2023-05-10T11:37:09.538Z,96479.34
2023-05-10T11:41:12.570Z,96490.28
2023-05-10T11:45:14.357Z,96485.09
2023-05-10T11:49:17.475Z,96475.72
2023-05-10T11:53:17.887Z,96481.41
2023-05-10T11:57:18.119Z,96478.47
2023-05-10T12:01:18.463Z,96481.28
2023-05-10T12:05:21.699Z,96485.16
2023-05-10T12:09:35.337Z,96486.97
2023-05-10T12:13:36.142Z,96474.94
2023-05-10T12:17:37.784Z,96485.38
2023-05-10T12:21:42.540Z,96475.72
2023-05-10T12:25:44.286Z,96486.50
2023-05-10T12:29:47.941Z,96482.97
2023-05-10T12:33:52.718Z,96495.84
2023-05-10T12:37:55.612Z,96474.25
2023-05-10T12:41:56.309Z,96486.00
2023-05-10T12:45:56.942Z,96490.13
2023-05-10T12:49:57.226Z,96459.91
2023-05-10T12:54:00.041Z,96489.38
2023-05-10T12:58:00.620Z,96483.94
2023-05-10T13:02:01.821Z,96490.97
2023-05-10T13:06:02.017Z,96488.13
2023-05-10T13:10:05.276Z,96499.72
2023-05-10T13:14:07.208Z,96470.63
2023-05-10T13:18:08.084Z,96494.91
2023-05-10T13:22:08.546Z,96500.94
2023-05-10T13:26:11.813Z,96502.84
2023-05-10T13:30:13.959Z,96504.13
2023-05-10T13:34:14.300Z,96505.69
2023-05-10T13:38:14.911Z,96495.69
2023-05-10T13:42:17.941Z,96497.25
2023-05-10T13:46:18.877Z,96506.69
2023-05-10T13:50:20.065Z,96500.66
2023-05-10T13:54:21.508Z,96506.66
2023-05-10T13:58:25.184Z,96503.50
2023-05-10T14:02:27.046Z,96507.97
2023-05-10T14:06:28.147Z,96493.63
2023-05-10T14:10:28.410Z,96512.72
2023-05-10T14:14:31.321Z,96503.84
2023-05-10T14:18:31.838Z,96520.97
2023-05-10T14:22:32.055Z,96505.06
2023-05-10T14:26:32.444Z,96514.56
2023-05-10T14:30:36.523Z,96497.28
2023-05-10T14:34:36.875Z,96510.25
2023-05-10T14:38:37.308Z,96509.25
2023-05-10T14:42:37.579Z,96507.81
2023-05-10T14:46:40.672Z,96506.53
2023-05-10T14:50:43.726Z,96514.25
2023-05-10T14:54:44.207Z,96501.13
2023-05-10T14:58:44.382Z,96502.69
2023-05-10T15:02:47.301Z,96510.44
2023-05-10T15:06:48.312Z,96513.84
2023-05-10T15:10:48.869Z,96512.75
2023-05-10T15:14:49.160Z,96490.66
2023-05-10T15:18:52.161Z,96488.09
2023-05-10T15:22:52.422Z,96513.84
2023-05-10T15:26:52.582Z,96520.94
2023-05-10T15:30:53.512Z,96520.88
2023-05-10T15:34:56.823Z,96525.13
2023-05-10T15:38:57.796Z,96511.47
2023-05-10T15:42:58.457Z,96511.69
2023-05-10T15:46:59.653Z,96485.69
2023-05-10T15:51:02.948Z,96510.22
2023-05-10T15:55:13.122Z,96529.53
2023-05-10T15:59:13.512Z,96515.72
2023-05-10T16:03:14.707Z,96544.44
2023-05-10T16:07:17.562Z,96545.88
2023-05-10T16:11:17.841Z,96549.25
2023-05-10T16:15:18.488Z,96557.06
2023-05-10T16:19:19.124Z,96555.84
2023-05-10T16:23:22.879Z,96544.88
2023-05-10T16:27:23.232Z,96556.81
2023-05-10T16:31:23.614Z,96561.88
2023-05-10T16:35:24.251Z,96574.25
2023-05-10T16:39:27.265Z,96586.97
2023-05-10T16:43:27.424Z,96572.03
2023-05-10T16:47:27.694Z,96582.81
2023-05-10T16:51:28.040Z,96595.16
2023-05-10T16:55:31.022Z,96591.78
2023-05-10T16:59:31.795Z,96594.38
2023-05-10T17:03:32.129Z,96612.13
2023-05-10T17:07:32.436Z,96614.16
2023-05-10T17:11:35.789Z,96604.59
2023-05-10T17:15:36.166Z,96619.06
2023-05-10T17:19:36.573Z,96601.50
2023-05-10T17:23:36.742Z,96618.66
2023-05-10T17:27:39.687Z,96621.16
2023-05-10T17:31:40.330Z,96614.94
2023-05-10T17:35:40.609Z,96625.50
2023-05-10T17:39:40.903Z,96615.63
2023-05-10T17:43:44.744Z,96639.47
2023-05-10T17:47:45.252Z,96637.78
2023-05-10T17:51:48.123Z,96633.09
2023-05-10T17:55:48.501Z,96637.47
2023-05-10T17:59:51.488Z,96645.00
2023-05-10T18:03:53.064Z,96649.56
2023-05-10T18:07:53.560Z,96648.00
2023-05-10T18:11:54.169Z,96645.59
2023-05-10T18:15:57.096Z,96653.00
2023-05-10T18:19:57.554Z,96645.09
2023-05-10T18:23:57.847Z,96652.31
2023-05-10T18:27:58.306Z,96650.97
2023-05-10T18:32:01.132Z,96655.19
2023-05-10T18:36:02.692Z,96662.22
2023-05-10T18:40:04.959Z,96652.34
2023-05-10T18:44:05.678Z,96662.16
2023-05-10T18:48:09.166Z,96642.25
2023-05-10T18:52:09.619Z,96670.31
2023-05-10T18:56:10.466Z,96673.13
2023-05-10T19:00:13.279Z,96672.47
2023-05-10T19:04:16.365Z,96679.44
2023-05-10T19:08:16.831Z,96676.91
2023-05-10T19:12:17.220Z,96682.38
2023-05-10T19:16:20.272Z,96685.00
2023-05-10T19:20:24.434Z,96690.38
2023-05-10T19:24:25.979Z,96687.50
2023-05-10T19:28:26.766Z,96679.75
2023-05-10T19:32:27.196Z,96656.13
2023-05-10T19:36:30.073Z,96700.41
2023-05-10T19:40:30.413Z,96698.75
2023-05-10T19:44:30.849Z,96698.03
2023-05-10T19:48:31.903Z,96673.69
2023-05-10T19:52:34.862Z,96672.25
2023-05-10T19:56:35.674Z,96695.19
2023-05-10T20:00:36.240Z,96705.44
2023-05-10T20:04:36.799Z,96698.03
2023-05-10T20:08:39.660Z,96692.59
2023-05-10T20:12:39.937Z,96691.81
2023-05-10T20:16:40.389Z,96675.69
2023-05-10T20:20:40.825Z,96687.78
2023-05-10T20:24:45.500Z,96668.03
2023-05-10T20:28:46.770Z,96700.94
2023-05-10T20:32:48.014Z,96656.44
2023-05-10T20:36:48.370Z,96694.00
2023-05-10T20:40:51.390Z,96653.75
2023-05-10T20:44:51.977Z,96676.19
2023-05-10T20:48:52.190Z,96683.81
2023-05-10T20:52:53.218Z,96692.38
2023-05-10T20:56:56.379Z,96668.16
2023-05-10T21:00:56.662Z,96695.91
2023-05-10T21:04:57.910Z,96685.25
2023-05-10T21:08:58.503Z,96697.97
2023-05-10T21:13:01.609Z,96694.53
2023-05-10T21:17:01.793Z,96677.19
2023-05-10T21:21:02.219Z,96683.75
2023-05-10T21:25:02.484Z,96684.09
2023-05-10T21:29:05.400Z,96659.59
2023-05-10T21:33:06.013Z,96681.97
2023-05-10T21:37:06.291Z,96666.34
2023-05-10T21:41:10.404Z,96636.28
2023-05-10T21:45:14.605Z,96666.63
2023-05-10T21:49:14.865Z,96686.59
2023-05-10T21:53:15.151Z,96660.06
2023-05-10T21:57:15.429Z,96671.22
2023-05-10T22:01:18.370Z,96675.00
2023-05-10T22:05:19.611Z,96673.00
2023-05-10T22:09:21.990Z,96659.19
2023-05-10T22:13:22.222Z,96670.72
2023-05-10T22:17:25.126Z,96672.03
2023-05-10T22:21:26.063Z,96655.19
2023-05-10T22:25:26.268Z,96673.84
2023-05-10T22:29:26.574Z,96661.72
2023-05-10T22:33:29.388Z,96648.94
2023-05-10T22:37:29.657Z,96654.25
2023-05-10T22:41:29.859Z,96662.72
2023-05-10T22:45:30.602Z,96652.06
2023-05-10T22:49:33.509Z,96650.69
2023-05-10T22:53:33.739Z,96665.66
2023-05-10T22:57:34.517Z,96668.28
2023-05-10T23:01:34.876Z,96669.47
2023-05-10T23:05:37.769Z,96663.75
2023-05-10T23:09:37.926Z,96673.31
2023-05-10T23:13:38.098Z,96672.75
2023-05-10T23:17:38.214Z,96680.72
2023-05-10T23:21:41.224Z,96665.53
2023-05-10T23:25:41.818Z,96669.69
2023-05-10T23:29:42.091Z,96673.63
2023-05-10T23:33:42.255Z,96662.38
2023-05-10T23:37:45.812Z,96678.34
2023-05-10T23:41:46.135Z,96669.44
2023-05-10T23:45:46.743Z,96668.22
2023-05-10T23:49:47.106Z,96669.53
2023-05-10T23:53:49.996Z,96663.88
2023-05-10T23:57:50.200Z,96666.88
